sensor_id;sensor_type;location;lat;lon;timestamp;P1;durP1;ratioP1;P2;durP2;ratioP2
773;SDS011;370;48.810;9.150;2022-09-01T00:00:35;22.00;;;9.00;;
773;SDS011;370;48.810;9.150;2022-09-01T00:03:03;24.70;;;10.27;;
773;SDS011;370;48.810;9.150;2022-09-01T00:05:29;18.30;;;8.77;;
773;SDS011;370;48.810;9.150;2022-09-01T00:07:58;23.00;;;8.13;;
773;SDS011;370;48.810;9.150;2022-09-01T00:10:26;18.13;;;8.57;;
773;SDS011;370;48.810;9.150;2022-09-01T00:12:53;20.17;;;9.30;;
773;SDS011;370;48.810;9.150;2022-09-01T00:15:20;17.77;;;7.90;;
773;SDS011;370;48.810;9.150;2022-09-01T00:17:47;27.75;;;7.70;;
773;SDS011;370;48.810;9.150;2022-09-01T00:20:14;17.40;;;8.65;;
773;SDS011;370;48.810;9.150;2022-09-01T00:22:41;17.60;;;7.63;;
773;SDS011;370;48.810;9.150;2022-09-01T00:25:08;28.40;;;8.60;;
773;SDS011;370;48.810;9.150;2022-09-01T00:27:36;15.95;;;7.93;;
773;SDS011;370;48.810;9.150;2022-09-01T00:30:03;16.47;;;8.07;;
773;SDS011;370;48.810;9.150;2022-09-01T00:32:31;17.60;;;8.93;;
773;SDS011;370;48.810;9.150;2022-09-01T00:34:58;20.20;;;8.10;;
773;SDS011;370;48.810;9.150;2022-09-01T00:37:25;18.05;;;8.00;;
773;SDS011;370;48.810;9.150;2022-09-01T00:39:52;13.93;;;7.40;;
773;SDS011;370;48.810;9.150;2022-09-01T00:42:18;15.80;;;8.68;;
773;SDS011;370;48.810;9.150;2022-09-01T00:44:47;20.42;;;8.15;;
773;SDS011;370;48.810;9.150;2022-09-01T00:47:14;14.73;;;7.93;;
773;SDS011;370;48.810;9.150;2022-09-01T00:49:42;14.63;;;7.10;;
773;SDS011;370;48.810;9.150;2022-09-01T00:52:12;12.20;;;6.20;;
773;SDS011;370;48.810;9.150;2022-09-01T00:54:43;15.15;;;7.30;;
773;SDS011;370;48.810;9.150;2022-09-01T00:57:12;14.82;;;7.90;;
773;SDS011;370;48.810;9.150;2022-09-01T00:59:42;17.77;;;8.03;;
773;SDS011;370;48.810;9.150;2022-09-01T01:02:15;17.02;;;7.97;;
773;SDS011;370;48.810;9.150;2022-09-01T01:04:42;15.90;;;8.38;;
773;SDS011;370;48.810;9.150;2022-09-01T01:07:10;15.65;;;8.10;;
773;SDS011;370;48.810;9.150;2022-09-01T01:09:39;14.93;;;8.52;;
773;SDS011;370;48.810;9.150;2022-09-01T01:12:09;16.48;;;7.35;;
773;SDS011;370;48.810;9.150;2022-09-01T01:14:42;14.15;;;8.30;;
773;SDS011;370;48.810;9.150;2022-09-01T01:17:15;14.32;;;7.20;;
773;SDS011;370;48.810;9.150;2022-09-01T01:19:42;12.82;;;6.90;;
773;SDS011;370;48.810;9.150;2022-09-01T01:22:32;14.65;;;7.03;;
773;SDS011;370;48.810;9.150;2022-09-01T01:25:25;14.35;;;7.25;;
773;SDS011;370;48.810;9.150;2022-09-01T01:28:01;16.77;;;7.25;;
773;SDS011;370;48.810;9.150;2022-09-01T01:30:30;16.42;;;7.97;;
773;SDS011;370;48.810;9.150;2022-09-01T01:33:01;17.88;;;8.75;;
773;SDS011;370;48.810;9.150;2022-09-01T01:35:28;13.55;;;7.03;;
773;SDS011;370;48.810;9.150;2022-09-01T01:37:56;16.00;;;7.40;;
773;SDS011;370;48.810;9.150;2022-09-01T01:40:23;16.40;;;7.85;;
773;SDS011;370;48.810;9.150;2022-09-01T01:42:51;16.73;;;9.48;;
773;SDS011;370;48.810;9.150;2022-09-01T01:45:20;22.63;;;10.77;;
773;SDS011;370;48.810;9.150;2022-09-01T01:47:49;24.67;;;12.00;;
773;SDS011;370;48.810;9.150;2022-09-01T01:50:17;20.60;;;10.73;;
773;SDS011;370;48.810;9.150;2022-09-01T01:52:45;18.05;;;8.23;;
773;SDS011;370;48.810;9.150;2022-09-01T01:55:12;15.20;;;9.18;;
773;SDS011;370;48.810;9.150;2022-09-01T01:57:43;18.55;;;7.50;;
773;SDS011;370;48.810;9.150;2022-09-01T02:00:15;19.70;;;7.97;;
773;SDS011;370;48.810;9.150;2022-09-01T02:02:45;19.15;;;7.38;;
773;SDS011;370;48.810;9.150;2022-09-01T02:05:17;17.70;;;7.32;;
773;SDS011;370;48.810;9.150;2022-09-01T02:11:11;11.10;;;6.50;;
773;SDS011;370;48.810;9.150;2022-09-01T02:13:41;16.65;;;6.88;;
773;SDS011;370;48.810;9.150;2022-09-01T02:16:09;29.75;;;10.00;;
773;SDS011;370;48.810;9.150;2022-09-01T02:18:38;13.85;;;7.72;;
773;SDS011;370;48.810;9.150;2022-09-01T02:21:09;22.45;;;8.30;;
773;SDS011;370;48.810;9.150;2022-09-01T02:23:38;14.27;;;8.10;;
773;SDS011;370;48.810;9.150;2022-09-01T02:26:06;15.73;;;7.88;;
773;SDS011;370;48.810;9.150;2022-09-01T02:28:36;15.43;;;7.53;;
773;SDS011;370;48.810;9.150;2022-09-01T02:31:04;17.85;;;8.43;;
773;SDS011;370;48.810;9.150;2022-09-01T02:33:34;16.33;;;7.65;;
773;SDS011;370;48.810;9.150;2022-09-01T02:36:03;18.60;;;7.88;;
773;SDS011;370;48.810;9.150;2022-09-01T02:38:32;15.80;;;7.68;;
773;SDS011;370;48.810;9.150;2022-09-01T02:40:58;13.88;;;7.18;;
773;SDS011;370;48.810;9.150;2022-09-01T02:43:27;16.25;;;7.82;;
773;SDS011;370;48.810;9.150;2022-09-01T02:45:56;16.42;;;7.03;;
773;SDS011;370;48.810;9.150;2022-09-01T02:48:24;20.42;;;8.65;;
773;SDS011;370;48.810;9.150;2022-09-01T02:50:58;16.35;;;7.80;;
773;SDS011;370;48.810;9.150;2022-09-01T02:53:27;15.18;;;6.70;;
773;SDS011;370;48.810;9.150;2022-09-01T02:55:55;13.48;;;7.72;;
773;SDS011;370;48.810;9.150;2022-09-01T02:58:23;15.73;;;8.57;;
773;SDS011;370;48.810;9.150;2022-09-01T03:00:51;15.45;;;8.02;;
773;SDS011;370;48.810;9.150;2022-09-01T03:03:19;16.85;;;8.98;;
773;SDS011;370;48.810;9.150;2022-09-01T03:05:46;14.07;;;6.88;;
773;SDS011;370;48.810;9.150;2022-09-01T03:08:21;14.30;;;8.07;;
773;SDS011;370;48.810;9.150;2022-09-01T03:10:49;22.70;;;7.70;;
773;SDS011;370;48.810;9.150;2022-09-01T03:13:18;16.52;;;7.50;;
773;SDS011;370;48.810;9.150;2022-09-01T03:15:46;16.13;;;7.47;;
773;SDS011;370;48.810;9.150;2022-09-01T03:18:14;14.60;;;7.10;;
773;SDS011;370;48.810;9.150;2022-09-01T03:20:42;17.95;;;7.80;;
773;SDS011;370;48.810;9.150;2022-09-01T03:23:12;15.23;;;6.90;;
773;SDS011;370;48.810;9.150;2022-09-01T03:25:41;16.27;;;7.03;;
773;SDS011;370;48.810;9.150;2022-09-01T03:28:09;18.70;;;7.63;;
773;SDS011;370;48.810;9.150;2022-09-01T03:30:38;15.23;;;7.75;;
773;SDS011;370;48.810;9.150;2022-09-01T03:33:09;13.45;;;7.45;;
773;SDS011;370;48.810;9.150;2022-09-01T03:35:36;13.60;;;6.82;;
773;SDS011;370;48.810;9.150;2022-09-01T03:38:03;34.10;;;7.95;;
773;SDS011;370;48.810;9.150;2022-09-01T03:40:31;16.05;;;6.82;;
773;SDS011;370;48.810;9.150;2022-09-01T03:43:02;16.63;;;7.07;;
773;SDS011;370;48.810;9.150;2022-09-01T03:45:30;19.88;;;7.80;;
773;SDS011;370;48.810;9.150;2022-09-01T03:47:59;18.60;;;7.40;;
773;SDS011;370;48.810;9.150;2022-09-01T03:50:27;16.65;;;8.25;;
773;SDS011;370;48.810;9.150;2022-09-01T03:52:56;15.60;;;7.30;;
773;SDS011;370;48.810;9.150;2022-09-01T03:55:26;18.55;;;6.70;;
773;SDS011;370;48.810;9.150;2022-09-01T03:57:56;22.20;;;8.13;;
773;SDS011;370;48.810;9.150;2022-09-01T04:00:26;15.60;;;6.70;;
773;SDS011;370;48.810;9.150;2022-09-01T04:02:57;15.98;;;7.68;;
773;SDS011;370;48.810;9.150;2022-09-01T04:05:25;17.83;;;7.60;;
773;SDS011;370;48.810;9.150;2022-09-01T04:07:54;11.95;;;6.85;;
773;SDS011;370;48.810;9.150;2022-09-01T04:10:21;11.80;;;6.60;;
773;SDS011;370;48.810;9.150;2022-09-01T04:12:48;15.52;;;6.50;;
773;SDS011;370;48.810;9.150;2022-09-01T04:15:15;14.18;;;7.10;;
773;SDS011;370;48.810;9.150;2022-09-01T04:17:45;15.88;;;6.70;;
773;SDS011;370;48.810;9.150;2022-09-01T04:20:29;15.98;;;6.60;;
773;SDS011;370;48.810;9.150;2022-09-01T04:23:03;14.20;;;7.43;;
773;SDS011;370;48.810;9.150;2022-09-01T04:25:34;15.45;;;7.55;;
773;SDS011;370;48.810;9.150;2022-09-01T04:28:02;17.85;;;6.60;;
773;SDS011;370;48.810;9.150;2022-09-01T04:30:36;13.52;;;6.25;;
773;SDS011;370;48.810;9.150;2022-09-01T04:33:06;16.60;;;7.47;;
773;SDS011;370;48.810;9.150;2022-09-01T04:35:36;14.45;;;7.45;;
773;SDS011;370;48.810;9.150;2022-09-01T04:38:03;16.35;;;6.85;;
773;SDS011;370;48.810;9.150;2022-09-01T04:40:32;14.23;;;7.13;;
773;SDS011;370;48.810;9.150;2022-09-01T04:43:02;16.20;;;7.40;;
773;SDS011;370;48.810;9.150;2022-09-01T04:45:29;17.38;;;7.82;;
773;SDS011;370;48.810;9.150;2022-09-01T04:47:58;15.40;;;7.55;;
773;SDS011;370;48.810;9.150;2022-09-01T04:50:26;13.45;;;7.07;;
773;SDS011;370;48.810;9.150;2022-09-01T04:52:56;16.13;;;8.00;;
773;SDS011;370;48.810;9.150;2022-09-01T04:55:24;13.80;;;7.55;;
773;SDS011;370;48.810;9.150;2022-09-01T04:57:52;19.80;;;9.10;;
773;SDS011;370;48.810;9.150;2022-09-01T05:00:22;21.40;;;6.53;;
773;SDS011;370;48.810;9.150;2022-09-01T05:02:51;20.58;;;7.93;;
773;SDS011;370;48.810;9.150;2022-09-01T05:05:19;13.93;;;7.47;;
773;SDS011;370;48.810;9.150;2022-09-01T05:07:48;17.20;;;8.65;;
773;SDS011;370;48.810;9.150;2022-09-01T05:10:17;18.98;;;8.10;;
773;SDS011;370;48.810;9.150;2022-09-01T05:12:45;12.30;;;6.00;;
773;SDS011;370;48.810;9.150;2022-09-01T05:15:12;15.90;;;8.10;;
773;SDS011;370;48.810;9.150;2022-09-01T05:17:41;18.02;;;7.82;;
773;SDS011;370;48.810;9.150;2022-09-01T05:20:08;19.55;;;8.80;;
773;SDS011;370;48.810;9.150;2022-09-01T05:22:38;17.10;;;7.93;;
773;SDS011;370;48.810;9.150;2022-09-01T05:25:07;21.50;;;9.23;;
773;SDS011;370;48.810;9.150;2022-09-01T05:27:39;16.65;;;8.02;;
773;SDS011;370;48.810;9.150;2022-09-01T05:30:07;18.23;;;8.35;;
773;SDS011;370;48.810;9.150;2022-09-01T05:32:34;13.13;;;7.88;;
773;SDS011;370;48.810;9.150;2022-09-01T05:35:04;16.55;;;8.65;;
773;SDS011;370;48.810;9.150;2022-09-01T05:37:32;24.48;;;7.93;;
773;SDS011;370;48.810;9.150;2022-09-01T05:40:01;18.90;;;8.45;;
773;SDS011;370;48.810;9.150;2022-09-01T05:42:31;13.13;;;6.95;;
773;SDS011;370;48.810;9.150;2022-09-01T05:44:58;17.75;;;7.32;;
773;SDS011;370;48.810;9.150;2022-09-01T05:47:26;16.48;;;8.30;;
773;SDS011;370;48.810;9.150;2022-09-01T05:49:53;15.55;;;8.00;;
773;SDS011;370;48.810;9.150;2022-09-01T05:52:22;17.25;;;8.45;;
773;SDS011;370;48.810;9.150;2022-09-01T05:54:50;16.75;;;8.25;;
773;SDS011;370;48.810;9.150;2022-09-01T05:57:17;16.80;;;8.40;;
773;SDS011;370;48.810;9.150;2022-09-01T05:59:45;24.60;;;8.73;;
773;SDS011;370;48.810;9.150;2022-09-01T06:02:17;20.08;;;8.43;;
773;SDS011;370;48.810;9.150;2022-09-01T06:04:45;18.45;;;9.35;;
773;SDS011;370;48.810;9.150;2022-09-01T06:07:13;21.50;;;9.48;;
773;SDS011;370;48.810;9.150;2022-09-01T06:09:41;16.83;;;8.03;;
773;SDS011;370;48.810;9.150;2022-09-01T06:12:11;17.80;;;8.73;;
773;SDS011;370;48.810;9.150;2022-09-01T06:14:47;17.17;;;8.70;;
773;SDS011;370;48.810;9.150;2022-09-01T06:17:15;17.43;;;8.00;;
773;SDS011;370;48.810;9.150;2022-09-01T06:19:46;21.00;;;10.00;;
773;SDS011;370;48.810;9.150;2022-09-01T06:22:13;24.67;;;10.13;;
773;SDS011;370;48.810;9.150;2022-09-01T06:24:41;21.20;;;10.70;;
773;SDS011;370;48.810;9.150;2022-09-01T06:27:07;24.87;;;11.23;;
773;SDS011;370;48.810;9.150;2022-09-01T06:29:35;21.60;;;9.90;;
773;SDS011;370;48.810;9.150;2022-09-01T06:32:05;23.73;;;10.47;;
773;SDS011;370;48.810;9.150;2022-09-01T06:34:33;27.03;;;10.87;;
773;SDS011;370;48.810;9.150;2022-09-01T06:37:00;22.10;;;9.83;;
773;SDS011;370;48.810;9.150;2022-09-01T06:39:27;17.33;;;9.53;;
773;SDS011;370;48.810;9.150;2022-09-01T06:41:55;25.20;;;11.23;;
773;SDS011;370;48.810;9.150;2022-09-01T06:44:23;19.83;;;10.30;;
773;SDS011;370;48.810;9.150;2022-09-01T06:46:50;24.10;;;10.93;;
773;SDS011;370;48.810;9.150;2022-09-01T06:49:19;21.37;;;10.77;;
773;SDS011;370;48.810;9.150;2022-09-01T06:51:47;20.70;;;10.13;;
773;SDS011;370;48.810;9.150;2022-09-01T06:54:15;19.43;;;9.10;;
773;SDS011;370;48.810;9.150;2022-09-01T06:56:43;19.83;;;9.30;;
773;SDS011;370;48.810;9.150;2022-09-01T06:59:10;22.10;;;10.90;;
773;SDS011;370;48.810;9.150;2022-09-01T07:01:39;24.43;;;10.10;;
773;SDS011;370;48.810;9.150;2022-09-01T07:04:06;23.23;;;10.77;;
773;SDS011;370;48.810;9.150;2022-09-01T07:06:35;37.80;;;11.73;;
773;SDS011;370;48.810;9.150;2022-09-01T07:09:04;20.20;;;10.30;;
773;SDS011;370;48.810;9.150;2022-09-01T07:11:32;21.27;;;11.03;;
773;SDS011;370;48.810;9.150;2022-09-01T07:14:00;24.00;;;10.10;;
773;SDS011;370;48.810;9.150;2022-09-01T07:16:30;24.80;;;10.10;;
773;SDS011;370;48.810;9.150;2022-09-01T07:19:04;20.40;;;9.77;;
773;SDS011;370;48.810;9.150;2022-09-01T07:21:35;28.30;;;18.27;;
773;SDS011;370;48.810;9.150;2022-09-01T07:24:02;19.63;;;10.93;;
773;SDS011;370;48.810;9.150;2022-09-01T07:26:30;21.83;;;9.47;;
773;SDS011;370;48.810;9.150;2022-09-01T07:28:58;16.37;;;7.83;;
773;SDS011;370;48.810;9.150;2022-09-01T07:31:28;12.80;;;7.90;;
773;SDS011;370;48.810;9.150;2022-09-01T07:33:59;16.20;;;8.97;;
773;SDS011;370;48.810;9.150;2022-09-01T07:36:28;21.67;;;9.00;;
773;SDS011;370;48.810;9.150;2022-09-01T07:38:57;15.17;;;7.87;;
773;SDS011;370;48.810;9.150;2022-09-01T07:41:25;15.40;;;7.37;;
773;SDS011;370;48.810;9.150;2022-09-01T07:43:53;13.53;;;7.90;;
773;SDS011;370;48.810;9.150;2022-09-01T07:46:20;16.77;;;7.37;;
773;SDS011;370;48.810;9.150;2022-09-01T07:48:50;25.23;;;7.60;;
773;SDS011;370;48.810;9.150;2022-09-01T07:51:20;14.73;;;7.50;;
773;SDS011;370;48.810;9.150;2022-09-01T07:53:48;16.43;;;7.47;;
773;SDS011;370;48.810;9.150;2022-09-01T07:56:17;11.77;;;6.60;;
773;SDS011;370;48.810;9.150;2022-09-01T07:58:45;12.73;;;6.87;;
773;SDS011;370;48.810;9.150;2022-09-01T08:01:13;12.63;;;6.77;;
773;SDS011;370;48.810;9.150;2022-09-01T08:03:42;14.00;;;6.83;;
773;SDS011;370;48.810;9.150;2022-09-01T08:06:11;14.77;;;8.20;;
773;SDS011;370;48.810;9.150;2022-09-01T08:08:39;14.53;;;6.70;;
773;SDS011;370;48.810;9.150;2022-09-01T08:11:06;11.57;;;6.87;;
773;SDS011;370;48.810;9.150;2022-09-01T08:13:36;14.33;;;5.87;;
773;SDS011;370;48.810;9.150;2022-09-01T08:16:03;8.70;;;5.50;;
773;SDS011;370;48.810;9.150;2022-09-01T08:18:30;8.30;;;5.20;;
773;SDS011;370;48.810;9.150;2022-09-01T08:20:57;9.10;;;6.10;;
773;SDS011;370;48.810;9.150;2022-09-01T08:23:25;10.40;;;5.70;;
773;SDS011;370;48.810;9.150;2022-09-01T08:25:51;12.90;;;6.17;;
773;SDS011;370;48.810;9.150;2022-09-01T08:28:19;12.60;;;6.57;;
773;SDS011;370;48.810;9.150;2022-09-01T08:30:47;11.67;;;4.90;;
773;SDS011;370;48.810;9.150;2022-09-01T08:33:14;10.50;;;6.23;;
773;SDS011;370;48.810;9.150;2022-09-01T08:35:41;10.43;;;5.70;;
773;SDS011;370;48.810;9.150;2022-09-01T08:38:11;9.13;;;4.90;;
773;SDS011;370;48.810;9.150;2022-09-01T08:40:38;12.23;;;5.60;;
773;SDS011;370;48.810;9.150;2022-09-01T08:43:15;8.63;;;4.93;;
773;SDS011;370;48.810;9.150;2022-09-01T08:45:49;6.70;;;4.00;;
773;SDS011;370;48.810;9.150;2022-09-01T08:48:20;13.17;;;5.00;;
773;SDS011;370;48.810;9.150;2022-09-01T08:50:52;4.70;;;3.77;;
773;SDS011;370;48.810;9.150;2022-09-01T08:53:26;10.17;;;4.83;;
773;SDS011;370;48.810;9.150;2022-09-01T08:55:56;8.40;;;4.53;;
773;SDS011;370;48.810;9.150;2022-09-01T08:58:24;4.13;;;3.33;;
773;SDS011;370;48.810;9.150;2022-09-01T09:00:58;8.57;;;3.77;;
773;SDS011;370;48.810;9.150;2022-09-01T09:03:31;6.90;;;4.47;;
773;SDS011;370;48.810;9.150;2022-09-01T09:06:09;9.90;;;4.10;;
773;SDS011;370;48.810;9.150;2022-09-01T09:08:44;7.93;;;3.83;;
773;SDS011;370;48.810;9.150;2022-09-01T09:11:21;5.53;;;3.20;;
773;SDS011;370;48.810;9.150;2022-09-01T09:14:09;17.53;;;4.10;;
773;SDS011;370;48.810;9.150;2022-09-01T09:16:45;5.43;;;3.40;;
773;SDS011;370;48.810;9.150;2022-09-01T09:19:15;9.90;;;3.67;;
773;SDS011;370;48.810;9.150;2022-09-01T09:21:46;5.33;;;3.50;;
773;SDS011;370;48.810;9.150;2022-09-01T09:24:15;5.77;;;3.53;;
773;SDS011;370;48.810;9.150;2022-09-01T09:26:48;8.23;;;4.50;;
773;SDS011;370;48.810;9.150;2022-09-01T09:29:16;6.23;;;4.33;;
773;SDS011;370;48.810;9.150;2022-09-01T09:31:45;10.50;;;4.40;;
773;SDS011;370;48.810;9.150;2022-09-01T09:34:15;4.97;;;3.60;;
773;SDS011;370;48.810;9.150;2022-09-01T09:36:56;5.67;;;4.00;;
773;SDS011;370;48.810;9.150;2022-09-01T09:39:26;6.70;;;4.10;;
773;SDS011;370;48.810;9.150;2022-09-01T09:42:01;7.13;;;4.60;;
773;SDS011;370;48.810;9.150;2022-09-01T09:44:38;6.83;;;3.73;;
773;SDS011;370;48.810;9.150;2022-09-01T09:47:10;8.57;;;3.93;;
773;SDS011;370;48.810;9.150;2022-09-01T09:50:03;5.90;;;3.70;;
773;SDS011;370;48.810;9.150;2022-09-01T09:52:38;6.10;;;4.03;;
773;SDS011;370;48.810;9.150;2022-09-01T09:55:17;5.40;;;3.70;;
773;SDS011;370;48.810;9.150;2022-09-01T09:57:49;8.03;;;4.00;;
773;SDS011;370;48.810;9.150;2022-09-01T10:00:19;6.70;;;3.87;;
773;SDS011;370;48.810;9.150;2022-09-01T10:02:52;16.80;;;4.50;;
773;SDS011;370;48.810;9.150;2022-09-01T10:05:25;6.27;;;3.73;;
773;SDS011;370;48.810;9.150;2022-09-01T10:07:58;4.00;;;3.00;;
773;SDS011;370;48.810;9.150;2022-09-01T10:10:27;7.13;;;4.00;;
773;SDS011;370;48.810;9.150;2022-09-01T10:12:56;6.00;;;3.20;;
773;SDS011;370;48.810;9.150;2022-09-01T10:15:25;6.30;;;4.80;;
773;SDS011;370;48.810;9.150;2022-09-01T10:17:57;11.87;;;4.20;;
773;SDS011;370;48.810;9.150;2022-09-01T10:20:30;5.70;;;4.13;;
773;SDS011;370;48.810;9.150;2022-09-01T10:22:58;5.23;;;3.47;;
773;SDS011;370;48.810;9.150;2022-09-01T10:25:28;4.80;;;3.20;;
773;SDS011;370;48.810;9.150;2022-09-01T10:28:01;4.00;;;3.20;;
773;SDS011;370;48.810;9.150;2022-09-01T10:30:32;6.37;;;3.93;;
773;SDS011;370;48.810;9.150;2022-09-01T10:33:00;5.60;;;3.73;;
773;SDS011;370;48.810;9.150;2022-09-01T10:35:29;6.70;;;3.83;;
773;SDS011;370;48.810;9.150;2022-09-01T10:37:58;8.80;;;4.77;;
773;SDS011;370;48.810;9.150;2022-09-01T10:40:36;4.00;;;3.77;;
773;SDS011;370;48.810;9.150;2022-09-01T10:43:21;6.63;;;4.67;;
773;SDS011;370;48.810;9.150;2022-09-01T10:45:55;5.63;;;4.00;;
773;SDS011;370;48.810;9.150;2022-09-01T10:48:25;5.53;;;4.20;;
773;SDS011;370;48.810;9.150;2022-09-01T10:54:06;5.03;;;4.00;;
773;SDS011;370;48.810;9.150;2022-09-01T10:56:38;7.67;;;3.97;;
773;SDS011;370;48.810;9.150;2022-09-01T10:59:07;4.90;;;4.10;;
773;SDS011;370;48.810;9.150;2022-09-01T11:07:39;4.07;;;3.53;;
773;SDS011;370;48.810;9.150;2022-09-01T11:13:21;4.07;;;3.60;;
773;SDS011;370;48.810;9.150;2022-09-01T11:15:56;6.00;;;4.10;;
773;SDS011;370;48.810;9.150;2022-09-01T11:18:54;4.27;;;4.00;;
773;SDS011;370;48.810;9.150;2022-09-01T11:21:41;5.30;;;3.80;;
773;SDS011;370;48.810;9.150;2022-09-01T11:30:17;4.73;;;3.13;;
773;SDS011;370;48.810;9.150;2022-09-01T11:32:47;3.37;;;2.90;;
773;SDS011;370;48.810;9.150;2022-09-01T11:35:18;5.57;;;3.43;;
773;SDS011;370;48.810;9.150;2022-09-01T11:37:48;3.93;;;3.37;;
773;SDS011;370;48.810;9.150;2022-09-01T11:40:18;3.83;;;3.20;;
773;SDS011;370;48.810;9.150;2022-09-01T11:42:48;3.80;;;3.17;;
773;SDS011;370;48.810;9.150;2022-09-01T11:45:18;6.80;;;3.43;;
773;SDS011;370;48.810;9.150;2022-09-01T11:47:49;5.93;;;3.30;;
773;SDS011;370;48.810;9.150;2022-09-01T11:50:20;4.20;;;3.40;;
773;SDS011;370;48.810;9.150;2022-09-01T11:52:55;4.90;;;3.33;;
773;SDS011;370;48.810;9.150;2022-09-01T11:55:27;4.40;;;3.60;;
773;SDS011;370;48.810;9.150;2022-09-01T11:57:55;3.63;;;3.30;;
773;SDS011;370;48.810;9.150;2022-09-01T12:00:25;3.43;;;3.20;;
773;SDS011;370;48.810;9.150;2022-09-01T12:02:53;4.10;;;3.50;;
773;SDS011;370;48.810;9.150;2022-09-01T12:05:26;4.87;;;3.57;;
773;SDS011;370;48.810;9.150;2022-09-01T12:07:56;3.73;;;3.40;;
773;SDS011;370;48.810;9.150;2022-09-01T12:10:28;4.40;;;3.80;;
773;SDS011;370;48.810;9.150;2022-09-01T12:13:04;4.47;;;3.80;;
773;SDS011;370;48.810;9.150;2022-09-01T12:15:32;6.10;;;3.63;;
773;SDS011;370;48.810;9.150;2022-09-01T12:18:10;3.80;;;2.80;;
773;SDS011;370;48.810;9.150;2022-09-01T12:20:40;5.40;;;3.97;;
773;SDS011;370;48.810;9.150;2022-09-01T12:23:16;3.50;;;3.10;;
773;SDS011;370;48.810;9.150;2022-09-01T12:25:47;5.97;;;3.10;;
773;SDS011;370;48.810;9.150;2022-09-01T12:28:14;4.07;;;3.13;;
773;SDS011;370;48.810;9.150;2022-09-01T12:30:41;5.53;;;3.87;;
773;SDS011;370;48.810;9.150;2022-09-01T12:33:10;3.67;;;3.50;;
773;SDS011;370;48.810;9.150;2022-09-01T12:35:38;4.30;;;3.60;;
773;SDS011;370;48.810;9.150;2022-09-01T12:38:22;4.97;;;4.10;;
773;SDS011;370;48.810;9.150;2022-09-01T12:40:51;3.93;;;3.37;;
773;SDS011;370;48.810;9.150;2022-09-01T12:43:26;4.70;;;3.50;;
773;SDS011;370;48.810;9.150;2022-09-01T12:45:58;3.70;;;3.30;;
773;SDS011;370;48.810;9.150;2022-09-01T12:48:26;3.33;;;2.90;;
773;SDS011;370;48.810;9.150;2022-09-01T12:50:54;4.13;;;2.90;;
773;SDS011;370;48.810;9.150;2022-09-01T12:53:25;3.37;;;2.87;;
773;SDS011;370;48.810;9.150;2022-09-01T12:55:58;4.57;;;3.50;;
773;SDS011;370;48.810;9.150;2022-09-01T12:58:28;3.07;;;2.93;;
773;SDS011;370;48.810;9.150;2022-09-01T13:00:57;4.27;;;3.40;;
773;SDS011;370;48.810;9.150;2022-09-01T13:03:27;2.73;;;2.50;;
773;SDS011;370;48.810;9.150;2022-09-01T13:05:55;6.27;;;3.10;;
773;SDS011;370;48.810;9.150;2022-09-01T13:08:26;4.27;;;2.97;;
773;SDS011;370;48.810;9.150;2022-09-01T13:10:55;3.80;;;3.40;;
773;SDS011;370;48.810;9.150;2022-09-01T13:13:25;3.10;;;2.83;;
773;SDS011;370;48.810;9.150;2022-09-01T13:15:53;4.20;;;3.10;;
773;SDS011;370;48.810;9.150;2022-09-01T13:18:25;3.17;;;3.00;;
773;SDS011;370;48.810;9.150;2022-09-01T13:20:53;3.30;;;2.77;;
773;SDS011;370;48.810;9.150;2022-09-01T13:23:21;3.77;;;3.10;;
773;SDS011;370;48.810;9.150;2022-09-01T13:25:50;3.57;;;3.30;;
773;SDS011;370;48.810;9.150;2022-09-01T13:28:17;4.60;;;3.20;;
773;SDS011;370;48.810;9.150;2022-09-01T13:30:49;4.20;;;3.43;;
773;SDS011;370;48.810;9.150;2022-09-01T13:33:19;4.03;;;3.67;;
773;SDS011;370;48.810;9.150;2022-09-01T13:35:46;5.10;;;3.30;;
773;SDS011;370;48.810;9.150;2022-09-01T13:38:13;5.23;;;3.60;;
773;SDS011;370;48.810;9.150;2022-09-01T13:40:41;4.20;;;3.33;;
773;SDS011;370;48.810;9.150;2022-09-01T13:43:11;6.23;;;3.13;;
773;SDS011;370;48.810;9.150;2022-09-01T13:45:38;3.63;;;3.20;;
773;SDS011;370;48.810;9.150;2022-09-01T13:48:05;6.13;;;3.07;;
773;SDS011;370;48.810;9.150;2022-09-01T13:50:32;6.27;;;2.90;;
773;SDS011;370;48.810;9.150;2022-09-01T13:52:59;3.93;;;2.73;;
773;SDS011;370;48.810;9.150;2022-09-01T13:55:27;4.13;;;2.83;;
773;SDS011;370;48.810;9.150;2022-09-01T13:57:55;3.60;;;2.93;;
773;SDS011;370;48.810;9.150;2022-09-01T14:00:24;3.33;;;2.80;;
773;SDS011;370;48.810;9.150;2022-09-01T14:02:55;4.00;;;2.77;;
773;SDS011;370;48.810;9.150;2022-09-01T14:05:24;4.10;;;3.33;;
773;SDS011;370;48.810;9.150;2022-09-01T14:07:52;3.63;;;3.20;;
773;SDS011;370;48.810;9.150;2022-09-01T14:10:20;6.80;;;4.10;;
773;SDS011;370;48.810;9.150;2022-09-01T14:12:48;5.13;;;3.37;;
773;SDS011;370;48.810;9.150;2022-09-01T14:15:15;4.00;;;3.30;;
773;SDS011;370;48.810;9.150;2022-09-01T14:17:45;3.03;;;2.77;;
773;SDS011;370;48.810;9.150;2022-09-01T14:20:14;4.00;;;2.87;;
773;SDS011;370;48.810;9.150;2022-09-01T14:22:43;3.17;;;2.90;;
773;SDS011;370;48.810;9.150;2022-09-01T14:25:10;5.40;;;3.30;;
773;SDS011;370;48.810;9.150;2022-09-01T14:27:38;3.60;;;2.93;;
773;SDS011;370;48.810;9.150;2022-09-01T14:30:07;3.07;;;2.87;;
773;SDS011;370;48.810;9.150;2022-09-01T14:32:35;3.63;;;2.93;;
773;SDS011;370;48.810;9.150;2022-09-01T14:35:05;3.80;;;3.13;;
773;SDS011;370;48.810;9.150;2022-09-01T14:37:33;5.90;;;3.47;;
773;SDS011;370;48.810;9.150;2022-09-01T14:40:01;3.30;;;3.10;;
773;SDS011;370;48.810;9.150;2022-09-01T14:42:29;3.53;;;3.33;;
773;SDS011;370;48.810;9.150;2022-09-01T14:44:56;2.93;;;2.80;;
773;SDS011;370;48.810;9.150;2022-09-01T14:47:24;3.27;;;2.83;;
773;SDS011;370;48.810;9.150;2022-09-01T14:49:51;2.67;;;2.50;;
773;SDS011;370;48.810;9.150;2022-09-01T14:52:19;5.07;;;3.83;;
773;SDS011;370;48.810;9.150;2022-09-01T14:54:46;3.33;;;2.70;;
773;SDS011;370;48.810;9.150;2022-09-01T14:57:14;3.50;;;2.43;;
773;SDS011;370;48.810;9.150;2022-09-01T14:59:41;2.43;;;2.23;;
773;SDS011;370;48.810;9.150;2022-09-01T15:02:08;2.90;;;2.70;;
773;SDS011;370;48.810;9.150;2022-09-01T15:04:36;2.63;;;2.40;;
773;SDS011;370;48.810;9.150;2022-09-01T15:07:03;3.67;;;2.73;;
773;SDS011;370;48.810;9.150;2022-09-01T15:09:31;3.07;;;2.87;;
773;SDS011;370;48.810;9.150;2022-09-01T15:11:58;2.77;;;2.20;;
773;SDS011;370;48.810;9.150;2022-09-01T15:14:26;10.20;;;2.90;;
773;SDS011;370;48.810;9.150;2022-09-01T15:16:53;4.37;;;2.90;;
773;SDS011;370;48.810;9.150;2022-09-01T15:19:19;3.90;;;3.00;;
773;SDS011;370;48.810;9.150;2022-09-01T15:21:46;2.70;;;2.50;;
773;SDS011;370;48.810;9.150;2022-09-01T15:24:13;3.80;;;2.50;;
773;SDS011;370;48.810;9.150;2022-09-01T15:26:42;2.57;;;2.40;;
773;SDS011;370;48.810;9.150;2022-09-01T15:29:11;3.63;;;2.57;;
773;SDS011;370;48.810;9.150;2022-09-01T15:31:39;3.60;;;2.80;;
773;SDS011;370;48.810;9.150;2022-09-01T15:34:08;2.40;;;2.20;;
773;SDS011;370;48.810;9.150;2022-09-01T15:36:36;2.50;;;2.40;;
773;SDS011;370;48.810;9.150;2022-09-01T15:39:04;2.50;;;2.30;;
773;SDS011;370;48.810;9.150;2022-09-01T15:41:32;2.53;;;2.30;;
773;SDS011;370;48.810;9.150;2022-09-01T15:44:02;2.63;;;2.43;;
773;SDS011;370;48.810;9.150;2022-09-01T15:46:31;2.70;;;2.33;;
773;SDS011;370;48.810;9.150;2022-09-01T15:48:58;5.90;;;2.80;;
773;SDS011;370;48.810;9.150;2022-09-01T15:51:27;4.10;;;2.67;;
773;SDS011;370;48.810;9.150;2022-09-01T15:53:59;2.80;;;2.60;;
773;SDS011;370;48.810;9.150;2022-09-01T15:56:28;7.50;;;2.70;;
773;SDS011;370;48.810;9.150;2022-09-01T15:58:56;3.23;;;2.50;;
773;SDS011;370;48.810;9.150;2022-09-01T16:01:25;3.10;;;2.57;;
773;SDS011;370;48.810;9.150;2022-09-01T16:03:54;4.90;;;2.40;;
773;SDS011;370;48.810;9.150;2022-09-01T16:06:21;4.37;;;2.60;;
773;SDS011;370;48.810;9.150;2022-09-01T16:08:48;2.67;;;2.50;;
773;SDS011;370;48.810;9.150;2022-09-01T16:11:18;2.70;;;2.27;;